Merizo, Guam
Current Conditions -  °F | °C
As of 11:54 AM on Sunday 21 Dec 2014 (Local Time) from PGUM Reporting Station
Broken Clouds Broken Clouds  
Wind Chill: 88°   Ceiling: 3300
Heat Index: 97°   Visibility: 10mi
Dew Point: 74°   Wind: 23mph
Humidity: 63%   Direction: 70°ENE
Pressure: 29.89"   Gusts: 31mph
Location:  13.26°N, 144.67°E
Report Text: PGUM 210154Z 07020G27KT 10SM SCT025 BKN033 31/23 A2989 RMK AO2 PK WND 07028/0144 SLP111 T03110233
Loading
Personal Weather Stations






























Interactive Weather Map New forecast layout! Learn more

10-Day Weather Forecast

Advertisements
Track Severe Weather on mobile